createdAt,value
2022-12-27T00:04:39.765Z,100952.81
2022-12-27T00:09:41.181Z,100962.47
2022-12-27T00:14:42.468Z,100963.19
2022-12-27T00:19:43.897Z,100962.97
2022-12-27T00:24:45.268Z,100969.41
2022-12-27T00:29:46.618Z,100985.13
2022-12-27T00:34:48.237Z,100980.97
2022-12-27T00:39:49.582Z,100972.19
2022-12-27T00:44:50.923Z,100973.63
2022-12-27T00:49:52.320Z,100975.50
2022-12-27T00:54:53.913Z,100995.56
2022-12-27T00:59:55.271Z,100991.19
2022-12-27T01:04:57.380Z,100992.41
2022-12-27T01:09:59.019Z,100998.63
2022-12-27T01:15:00.421Z,101011.47
2022-12-27T01:20:02.133Z,101013.09
2022-12-27T01:25:03.699Z,101009.13
2022-12-27T01:30:06.389Z,101018.66
2022-12-27T01:35:08.567Z,101022.59
2022-12-27T01:40:10.573Z,101037.06
2022-12-27T01:45:27.846Z,101036.34
2022-12-27T01:50:35.845Z,101040.78
2022-12-27T01:55:49.088Z,101019.25
2022-12-27T02:00:51.123Z,101021.53
2022-12-27T02:05:52.907Z,101038.66
2022-12-27T02:10:55.298Z,101033.19
2022-12-27T02:15:56.631Z,101051.81
2022-12-27T02:21:18.485Z,101043.88
2022-12-27T02:26:55.321Z,101059.44
2022-12-27T02:32:06.171Z,101052.00
2022-12-27T02:37:12.071Z,101056.72
2022-12-27T02:42:33.996Z,101073.13
2022-12-27T02:47:54.859Z,101076.88
2022-12-27T02:53:09.881Z,101093.66
2022-12-27T02:58:30.555Z,101075.84
2022-12-27T03:04:05.721Z,101104.31
2022-12-27T03:09:41.665Z,101100.00
2022-12-27T03:15:06.708Z,101092.63
2022-12-27T03:20:34.632Z,101085.84
2022-12-27T03:25:37.559Z,101049.78
2022-12-27T03:30:58.716Z,101067.56
2022-12-27T03:36:25.021Z,101085.75
2022-12-27T03:42:03.498Z,101074.38
2022-12-27T03:47:35.659Z,101088.47
2022-12-27T03:52:49.061Z,101092.75
2022-12-27T03:57:51.041Z,101091.69
2022-12-27T04:02:52.481Z,101092.94
2022-12-27T04:08:12.293Z,101093.19
2022-12-27T04:13:32.072Z,101094.66
2022-12-27T04:18:51.840Z,101097.47
2022-12-27T04:24:11.700Z,101076.63
2022-12-27T04:29:31.561Z,101091.00
2022-12-27T04:34:45.037Z,101085.69
2022-12-27T04:40:07.718Z,101093.72
2022-12-27T04:45:28.324Z,101105.72
2022-12-27T04:50:51.063Z,101102.59
2022-12-27T04:55:52.478Z,101104.72
2022-12-27T05:01:14.517Z,101110.13
2022-12-27T05:06:16.799Z,101083.13
2022-12-27T05:11:37.046Z,101111.38
2022-12-27T05:16:40.437Z,101127.13
2022-12-27T05:22:04.722Z,101120.25
2022-12-27T05:27:06.067Z,101128.84
2022-12-27T05:32:12.844Z,101139.28
2022-12-27T05:37:14.808Z,101124.66
2022-12-27T05:42:16.191Z,101134.13
2022-12-27T05:47:17.534Z,101149.28
2022-12-27T05:52:19.371Z,101156.56
2022-12-27T05:57:20.754Z,101166.97
2022-12-27T06:02:22.310Z,101155.84
2022-12-27T06:07:23.832Z,101165.31
2022-12-27T06:12:25.250Z,101163.34
2022-12-27T06:17:26.636Z,101181.53
2022-12-27T06:22:27.974Z,101188.47
2022-12-27T06:27:29.282Z,101192.97
2022-12-27T06:32:31.744Z,101199.34
2022-12-27T06:37:33.119Z,101198.63
2022-12-27T06:42:34.472Z,101201.19
2022-12-27T06:47:42.777Z,101196.66
2022-12-27T06:52:44.329Z,101194.94
2022-12-27T06:57:45.676Z,101198.16
2022-12-27T07:02:47.895Z,101215.63
2022-12-27T07:07:49.819Z,101219.97
2022-12-27T07:12:51.260Z,101226.34
2022-12-27T07:17:52.826Z,101230.84
2022-12-27T07:22:54.343Z,101229.66
2022-12-27T07:27:55.846Z,101234.06
2022-12-27T07:32:57.543Z,101236.75
2022-12-27T07:37:58.933Z,101239.50
2022-12-27T07:43:00.359Z,101244.59
2022-12-27T07:48:01.715Z,101243.06
2022-12-27T07:53:03.422Z,101246.53
2022-12-27T07:58:04.920Z,101269.81
2022-12-27T08:03:06.373Z,101283.81
2022-12-27T08:08:07.835Z,101282.03
2022-12-27T08:13:09.500Z,101285.44
2022-12-27T08:18:11.221Z,101275.72
2022-12-27T08:23:12.606Z,101268.25
2022-12-27T08:28:16.368Z,101277.13
2022-12-27T08:33:17.795Z,101283.97
2022-12-27T08:38:19.227Z,101298.94
2022-12-27T08:43:20.614Z,101298.34
2022-12-27T08:48:21.995Z,101306.94
2022-12-27T08:53:23.647Z,101304.25
2022-12-27T08:58:25.057Z,101300.97
2022-12-27T09:03:26.432Z,101306.91
2022-12-27T09:08:27.932Z,101308.38
2022-12-27T09:13:29.350Z,101313.88
2022-12-27T09:18:30.675Z,101279.19
2022-12-27T09:23:32.062Z,101319.69
2022-12-27T09:28:33.661Z,101320.38
2022-12-27T09:33:35.163Z,101327.38
2022-12-27T09:38:37.208Z,101318.38
2022-12-27T09:43:53.502Z,101322.81
2022-12-27T09:48:56.341Z,101327.13
2022-12-27T09:54:15.834Z,101325.28
2022-12-27T09:59:29.329Z,101325.69
2022-12-27T10:05:09.802Z,101321.47
2022-12-27T10:10:14.009Z,101315.44
2022-12-27T10:15:39.632Z,101324.00
2022-12-27T10:20:53.448Z,101326.66
2022-12-27T10:26:02.609Z,101319.50
2022-12-27T10:31:04.557Z,101321.56
2022-12-27T10:36:15.131Z,101322.19
2022-12-27T10:41:19.583Z,101328.16
2022-12-27T10:46:32.222Z,101330.50
2022-12-27T10:51:39.787Z,101333.50
2022-12-27T10:56:44.184Z,101330.06
2022-12-27T11:01:47.878Z,101319.75
2022-12-27T11:06:51.918Z,101327.25
2022-12-27T11:12:16.648Z,101326.00
2022-12-27T11:17:18.722Z,101321.41
2022-12-27T11:22:20.649Z,101330.66
2022-12-27T11:27:26.018Z,101309.19
2022-12-27T11:32:27.576Z,101318.97
2022-12-27T11:37:29.020Z,101306.03
2022-12-27T11:42:38.376Z,101307.19
2022-12-27T11:47:53.226Z,101313.28
2022-12-27T11:53:27.897Z,101311.91
2022-12-27T11:58:49.463Z,101301.31
2022-12-27T12:04:28.607Z,101293.03
2022-12-27T12:09:56.490Z,101270.38
2022-12-27T12:15:33.702Z,101275.06
2022-12-27T12:20:51.319Z,101278.72
2022-12-27T12:26:11.050Z,101282.75
2022-12-27T12:31:37.181Z,101285.72
2022-12-27T12:36:52.460Z,101277.97
2022-12-27T12:42:00.282Z,101279.16
2022-12-27T12:47:22.983Z,101275.13
2022-12-27T12:52:42.688Z,101272.88
2022-12-27T12:58:16.639Z,101267.84
2022-12-27T13:03:19.222Z,101269.25
2022-12-27T13:08:40.854Z,101267.19
2022-12-27T13:13:55.929Z,101264.84
2022-12-27T13:19:22.347Z,101274.16
2022-12-27T13:25:06.317Z,101261.81
2022-12-27T13:30:22.532Z,101248.44
2022-12-27T13:35:42.356Z,101242.03
2022-12-27T13:41:23.657Z,101238.72
2022-12-27T13:47:13.144Z,101254.41
2022-12-27T13:52:35.324Z,101230.13
2022-12-27T13:57:47.028Z,101235.63
2022-12-27T14:03:17.529Z,101235.84
2022-12-27T14:08:37.630Z,101236.91
2022-12-27T14:13:43.340Z,101238.78
2022-12-27T14:19:10.798Z,101243.06
2022-12-27T14:24:34.219Z,101243.56
2022-12-27T14:29:53.905Z,101241.16
2022-12-27T14:35:16.197Z,101234.84
2022-12-27T14:40:34.428Z,101229.22
2022-12-27T14:46:14.339Z,101230.34
2022-12-27T14:51:59.962Z,101230.91
2022-12-27T14:57:11.988Z,101229.22
2022-12-27T15:02:47.859Z,101237.81
2022-12-27T15:08:21.551Z,101241.84
2022-12-27T15:13:41.332Z,101242.56
2022-12-27T15:18:49.155Z,101246.22
2022-12-27T15:24:00.170Z,101248.03
2022-12-27T15:29:24.036Z,101256.47
2022-12-27T15:34:36.089Z,101252.88
2022-12-27T15:39:37.383Z,101240.28
2022-12-27T15:45:05.391Z,101239.72
2022-12-27T15:50:25.730Z,101238.94
2022-12-27T15:55:30.288Z,101244.75
2022-12-27T16:00:34.307Z,101242.41
2022-12-27T16:05:48.970Z,101234.56
2022-12-27T16:10:50.980Z,101225.34
2022-12-27T16:15:54.149Z,101224.34
2022-12-27T16:20:57.364Z,101215.94
2022-12-27T16:26:10.912Z,101218.84
2022-12-27T16:31:12.976Z,101203.50
2022-12-27T16:36:26.346Z,101201.88
2022-12-27T16:41:27.726Z,101201.56
2022-12-27T16:46:47.937Z,101209.34
2022-12-27T16:52:17.377Z,101210.53
2022-12-27T16:57:24.407Z,101206.97
2022-12-27T17:02:38.856Z,101195.69
2022-12-27T17:07:50.190Z,101208.97
2022-12-27T17:13:00.631Z,101195.88
2022-12-27T17:18:22.658Z,101202.81
2022-12-27T17:23:24.185Z,101200.25
2022-12-27T17:28:32.787Z,101183.69
2022-12-27T17:33:54.024Z,101188.56
2022-12-27T17:39:06.865Z,101177.06
2022-12-27T17:44:37.856Z,101149.72
2022-12-27T17:49:40.424Z,101156.09
2022-12-27T17:55:00.640Z,101169.75
2022-12-27T18:00:03.726Z,101160.59
2022-12-27T18:05:12.483Z,101154.31
2022-12-27T18:10:22.777Z,101159.47
2022-12-27T18:15:27.050Z,101151.38
2022-12-27T18:20:28.744Z,101146.25
2022-12-27T18:25:32.475Z,101154.47
2022-12-27T18:30:42.302Z,101153.00
2022-12-27T18:35:49.304Z,101145.38
2022-12-27T18:41:00.197Z,101137.50
2022-12-27T18:46:03.337Z,101139.31
2022-12-27T18:51:05.172Z,101128.72
2022-12-27T18:56:23.505Z,101132.09
2022-12-27T19:01:32.711Z,101126.81
2022-12-27T19:06:34.207Z,101108.47
2022-12-27T19:11:36.721Z,101103.78
2022-12-27T19:16:38.257Z,101091.25
2022-12-27T19:21:39.742Z,101101.19
2022-12-27T19:26:41.143Z,101099.00
2022-12-27T19:31:44.954Z,101096.22
2022-12-27T19:36:48.611Z,101089.53
2022-12-27T19:41:51.039Z,101087.81
2022-12-27T19:46:52.372Z,101077.94
2022-12-27T19:51:58.255Z,101061.75
2022-12-27T19:56:59.728Z,101070.59
2022-12-27T20:02:01.290Z,101059.13
2022-12-27T20:07:03.339Z,101037.78
2022-12-27T20:12:05.255Z,101054.91
2022-12-27T20:17:06.665Z,101053.19
2022-12-27T20:22:08.014Z,101050.13
2022-12-27T20:27:09.470Z,101043.06
2022-12-27T20:32:10.904Z,101036.56
2022-12-27T20:37:12.408Z,101020.03
2022-12-27T20:42:13.801Z,101027.94
2022-12-27T20:47:15.201Z,101029.22
2022-12-27T20:52:16.895Z,101024.38
2022-12-27T20:57:18.340Z,101025.78
2022-12-27T21:02:20.026Z,101026.78
2022-12-27T21:07:21.543Z,101022.84
2022-12-27T21:12:23.022Z,101032.34
2022-12-27T21:17:24.679Z,101016.28
2022-12-27T21:22:26.400Z,101027.84
2022-12-27T21:27:27.859Z,101007.66
2022-12-27T21:32:29.659Z,101012.78
2022-12-27T21:37:30.984Z,101007.06
2022-12-27T21:42:32.287Z,100978.97
2022-12-27T21:47:33.729Z,100998.22
2022-12-27T21:52:35.118Z,100987.81
2022-12-27T21:57:36.458Z,100984.03
2022-12-27T22:02:38.101Z,100968.94
2022-12-27T22:07:42.109Z,100954.59
2022-12-27T22:12:43.456Z,100965.13
2022-12-27T22:17:44.850Z,100953.78
2022-12-27T22:22:46.384Z,100953.31
2022-12-27T22:27:47.752Z,100909.28
2022-12-27T22:32:49.079Z,100934.47
2022-12-27T22:37:50.433Z,100940.13
2022-12-27T22:42:51.749Z,100939.44
2022-12-27T22:47:53.461Z,100936.66
2022-12-27T22:52:54.888Z,100934.09
2022-12-27T22:57:56.251Z,100946.00
2022-12-27T23:02:57.599Z,100930.22
2022-12-27T23:08:06.236Z,100928.84
2022-12-27T23:13:08.261Z,100922.06
2022-12-27T23:18:09.755Z,100922.00
2022-12-27T23:23:11.320Z,100925.09
2022-12-27T23:28:12.753Z,100900.38
2022-12-27T23:33:14.124Z,100903.66
2022-12-27T23:38:15.531Z,100900.38
2022-12-27T23:43:50.532Z,100896.88
2022-12-27T23:48:38.190Z,100884.69
2022-12-27T23:53:40.379Z,100873.81
2022-12-27T23:58:42.729Z,100863.88
